Time;durP1;ratioP1;P1;durP2;ratioP2;P2;SDS_P1;SDS_P2;PMS_P1;PMS_P2;Temp;Humidity;BMP_temperature;BMP_pressure;BME280_temperature;BME280_humidity;BME280_pressure;Samples;Min_cycle;Max_cycle;Signal;HPM_P1;HPM_P2
2021/12/11 00:01:18;;;;;;;;;4.00;4.00;;;;;6.28;68.10;100468.50;4990696;28;45359;-70
2021/12/11 00:03:47;;;;;;;;;4.50;4.00;;;;;6.28;68.39;100460.56;4971769;28;45567;-61
2021/12/11 00:06:27;;;;;;;;;2.75;1.75;;;;;6.25;67.57;100471.28;4953148;28;1172491;-67
2021/12/11 00:08:55;;;;;;;;;5.50;5.50;;;;;6.16;68.41;100461.06;4989262;28;45473;-66
2021/12/11 00:11:29;;;;;;;;;7.75;6.00;;;;;6.22;68.26;100487.22;4964959;28;45590;-62
2021/12/11 00:13:57;;;;;;;;;7.50;5.00;;;;;6.30;67.75;100493.06;4965665;28;45655;-67
2021/12/11 00:16:26;;;;;;;;;10.75;9.00;;;;;6.32;68.14;100499.13;4988357;28;45517;-65
2021/12/11 00:19:02;;;;;;;;;4.25;4.25;;;;;6.29;67.83;100507.19;4975613;28;46248;-64
2021/12/11 00:21:29;;;;;;;;;5.50;5.00;;;;;6.28;68.57;100501.97;4963948;28;45533;-63
2021/12/11 00:24:08;;;;;;;;;5.00;3.50;;;;;6.25;68.68;100502.06;4993600;28;45280;-59
2021/12/11 00:26:39;;;;;;;;;11.25;3.50;;;;;6.27;68.30;100522.25;4986447;28;45334;-65
2021/12/11 00:29:09;;;;;;;;;3.50;2.00;;;;;6.18;67.95;100507.59;4982361;28;46180;-61
2021/12/11 00:31:36;;;;;;;;;5.00;4.00;;;;;6.15;69.00;100505.09;4955783;28;45456;-69
2021/12/11 00:34:03;;;;;;;;;3.00;2.00;;;;;6.20;68.50;100526.03;4967654;28;45550;-63
2021/12/11 00:36:34;;;;;;;;;3.00;3.00;;;;;6.14;69.07;100521.00;4992924;28;45467;-66
2021/12/11 00:39:10;;;;;;;;;2.50;2.50;;;;;6.18;68.12;100522.59;4994772;28;46013;-60
2021/12/11 00:41:36;;;;;;;;;3.50;3.50;;;;;6.15;68.37;100528.00;4982155;28;45429;-65
2021/12/11 00:44:03;;;;;;;;;2.25;1.25;;;;;6.16;68.40;100535.84;4993251;28;45601;-61
2021/12/11 00:46:30;;;;;;;;;2.50;2.50;;;;;6.13;68.53;100554.47;4981308;28;45461;-64
2021/12/11 00:49:10;;;;;;;;;2.00;2.00;;;;;6.12;68.53;100551.84;4994392;28;45361;-61
2021/12/11 00:51:36;;;;;;;;;5.00;4.00;;;;;6.15;68.71;100560.53;4974929;28;45496;-60
2021/12/11 00:54:03;;;;;;;;;2.00;2.00;;;;;6.15;68.25;100559.69;4965855;28;45667;-62
2021/12/11 00:56:32;;;;;;;;;6.00;2.00;;;;;6.12;68.92;100549.22;4991543;28;45545;-61
2021/12/11 00:59:00;;;;;;;;;7.00;3.00;;;;;6.16;68.28;100566.69;4993137;28;46242;-64
2021/12/11 01:01:30;;;;;;;;;3.00;3.00;;;;;6.09;68.21;100555.47;4974786;28;45524;-62
2021/12/11 01:04:21;;;;;;;;;4.00;1.75;;;;;6.11;68.62;100569.47;4960734;28;45332;-64
2021/12/11 01:07:04;;;;;;;;;2.00;2.00;;;;;6.08;68.46;100569.59;4965574;28;45712;-59
2021/12/11 01:09:40;;;;;;;;;4.25;2.00;;;;;6.04;68.78;100569.78;4985431;28;47804;-63
2021/12/11 01:12:15;;;;;;;;;7.25;1.25;;;;;6.08;68.24;100588.09;4982352;28;45459;-66
2021/12/11 01:14:51;;;;;;;;;3.00;2.00;;;;;6.07;68.23;100598.72;4974398;28;45374;-68
2021/12/11 01:17:24;;;;;;;;;5.75;3.00;;;;;6.04;69.06;100588.28;4976679;28;45813;-61
2021/12/11 01:19:59;;;;;;;;;5.75;2.00;;;;;6.05;68.00;100600.56;4956686;28;48183;-70
2021/12/11 01:22:34;;;;;;;;;7.25;3.50;;;;;5.99;68.59;100595.47;4987965;28;45468;-62
2021/12/11 01:25:25;;;;;;;;;1.75;1.75;;;;;6.07;68.20;100606.63;4988011;28;45576;-64
2021/12/11 01:27:57;;;;;;;;;4.00;1.00;;;;;6.05;68.32;100616.38;4989834;28;45661;-60
2021/12/11 01:30:42;;;;;;;;;5.50;4.00;;;;;6.04;69.18;100614.66;4992381;28;46129;-69
2021/12/11 01:33:11;;;;;;;;;4.50;2.00;;;;;6.03;69.04;100618.22;4983774;28;45497;-64
2021/12/11 01:35:36;;;;;;;;;6.00;1.75;;;;;6.03;69.38;100628.78;4975144;28;45404;-57
2021/12/11 01:38:08;;;;;;;;;6.00;3.50;;;;;6.05;68.28;100627.81;4989804;28;45639;-63
2021/12/11 01:40:35;;;;;;;;;4.00;1.75;;;;;6.04;68.70;100638.44;4975367;28;45418;-62
2021/12/11 01:43:02;;;;;;;;;5.50;2.00;;;;;6.06;69.02;100639.22;4991990;28;45170;-64
2021/12/11 01:45:29;;;;;;;;;4.00;3.50;;;;;6.01;68.71;100651.75;4947761;28;46546;-65
2021/12/11 01:47:55;;;;;;;;;3.00;2.00;;;;;6.06;69.31;100655.94;4973397;28;45441;-67
2021/12/11 01:50:36;;;;;;;;;4.75;4.75;;;;;6.09;68.47;100657.59;4987639;28;45731;-68
2021/12/11 01:53:14;;;;;;;;;5.00;2.00;;;;;6.08;68.97;100663.78;4974345;28;45469;-67
2021/12/11 01:55:47;;;;;;;;;4.00;4.00;;;;;6.08;69.27;100653.22;4989843;28;45553;-69
2021/12/11 01:58:20;;;;;;;;;2.00;2.00;;;;;6.07;68.79;100651.50;4992126;28;45269;-68
2021/12/11 02:00:54;;;;;;;;;3.50;1.75;;;;;6.09;69.61;100655.81;4983366;28;45299;-67
2021/12/11 02:03:27;;;;;;;;;2.00;1.75;;;;;6.09;69.08;100669.00;4976727;28;45421;-59
2021/12/11 02:05:53;;;;;;;;;9.75;2.00;;;;;6.09;68.70;100679.56;4970637;28;45374;-65
2021/12/11 02:08:27;;;;;;;;;4.75;2.00;;;;;6.10;68.14;100677.78;4979920;28;45469;-66
2021/12/11 02:11:00;;;;;;;;;5.00;2.00;;;;;6.11;68.92;100674.25;4987201;28;45450;-61
2021/12/11 02:13:43;;;;;;;;;5.00;1.25;;;;;6.06;68.50;100676.19;4985148;28;45366;-64
2021/12/11 02:16:38;;;;;;;;;4.00;1.75;;;;;6.13;69.48;100685.63;4988442;28;45400;-67
2021/12/11 02:19:13;;;;;;;;;2.00;2.00;;;;;6.14;68.46;100688.22;4988189;28;47103;-62
2021/12/11 02:21:55;;;;;;;;;4.50;2.00;;;;;6.14;68.91;100695.28;4983194;28;45521;-65
2021/12/11 02:24:24;;;;;;;;;4.00;4.00;;;;;6.11;68.18;100711.19;4988435;28;45804;-60
2021/12/11 02:26:53;;;;;;;;;8.00;2.00;;;;;6.15;68.83;100707.56;4983079;28;45631;-60
2021/12/11 02:29:29;;;;;;;;;2.00;1.50;;;;;6.13;68.83;100704.97;4993637;28;45533;-64
2021/12/11 02:32:09;;;;;;;;;2.25;1.75;;;;;6.16;68.14;100715.41;4975405;28;45474;-66
2021/12/11 02:34:37;;;;;;;;;9.25;4.25;;;;;6.15;68.61;100712.84;4969343;28;45905;-62
2021/12/11 02:37:07;;;;;;;;;8.50;6.50;;;;;6.14;68.06;100721.69;4988876;28;45417;-58
2021/12/11 02:39:47;;;;;;;;;5.00;2.00;;;;;6.09;68.67;100713.03;4974319;28;45570;-58
2021/12/11 02:42:38;;;;;;;;;9.50;4.00;;;;;6.11;69.17;100711.19;4981816;28;45507;-65
2021/12/11 02:45:27;;;;;;;;;6.00;2.75;;;;;6.09;69.20;100721.81;4977298;28;45490;-62
2021/12/11 02:48:03;;;;;;;;;6.50;2.00;;;;;6.10;68.89;100728.81;4966271;28;45634;-63
2021/12/11 02:50:48;;;;;;;;;5.00;2.00;;;;;6.05;69.03;100724.63;4984440;28;45418;-68
2021/12/11 02:53:16;;;;;;;;;2.00;2.00;;;;;6.08;69.37;100732.44;4991784;28;45436;-63
2021/12/11 02:55:59;;;;;;;;;4.25;2.00;;;;;6.01;68.63;100712.47;4988073;28;45647;-67
2021/12/11 02:58:29;;;;;;;;;4.50;1.75;;;;;6.04;68.59;100726.41;4978503;28;45220;-72
2021/12/11 03:01:07;;;;;;;;;3.00;3.00;;;;;6.04;69.12;100741.41;4974109;28;45265;-65
2021/12/11 03:03:38;;;;;;;;;2.00;1.50;;;;;6.02;68.79;100740.59;4975865;28;45436;-66
2021/12/11 03:06:17;;;;;;;;;3.50;3.50;;;;;6.02;68.50;100738.81;4990056;28;45468;-67
2021/12/11 03:08:43;;;;;;;;;1.50;1.50;;;;;5.95;69.33;100741.72;4976420;28;45333;-70
2021/12/11 03:11:13;;;;;;;;;1.00;1.00;;;;;5.99;68.48;100759.16;4984172;28;45485;-67
2021/12/11 03:13:39;;;;;;;;;6.25;1.50;;;;;5.92;69.08;100753.25;4958804;28;45802;-64
2021/12/11 03:16:09;;;;;;;;;3.50;2.00;;;;;5.94;68.96;100766.38;4989851;28;45532;-70
2021/12/11 03:18:35;;;;;;;;;3.50;3.50;;;;;5.94;69.04;100766.38;4982460;28;45670;-67
2021/12/11 03:21:01;;;;;;;;;1.50;1.50;;;;;5.89;69.01;100758.59;4988568;28;45242;-64
2021/12/11 03:23:27;;;;;;;;;2.00;1.25;;;;;5.82;68.69;100760.56;4985038;28;45820;-70
2021/12/11 03:25:52;;;;;;;;;5.00;1.00;;;;;5.93;69.63;100785.78;4992989;28;45362;-67
2021/12/11 03:28:21;;;;;;;;;5.75;4.00;;;;;5.90;69.91;100787.59;4984135;28;45302;-64
2021/12/11 03:31:00;;;;;;;;;2.00;2.00;;;;;5.91;69.79;100793.75;4979739;28;45402;-61
2021/12/11 03:33:29;;;;;;;;;4.50;2.50;;;;;5.88;69.38;100788.53;4975069;28;46188;-61
2021/12/11 03:35:55;;;;;;;;;4.00;1.75;;;;;5.82;69.39;100794.88;4995443;28;45449;-61
2021/12/11 03:38:23;;;;;;;;;3.00;2.50;;;;;5.79;69.18;100802.03;4987737;28;45377;-63
2021/12/11 03:40:50;;;;;;;;;6.00;2.00;;;;;5.81;70.04;100803.72;4980598;28;45506;-64
2021/12/11 03:43:18;;;;;;;;;2.00;2.00;;;;;5.82;69.69;100799.28;4975725;28;46150;-61
2021/12/11 03:45:47;;;;;;;;;4.75;3.00;;;;;5.80;69.30;100814.31;4976427;28;45710;-63
2021/12/11 03:48:20;;;;;;;;;2.00;2.00;;;;;5.83;69.79;100814.22;4988320;28;45490;-70
2021/12/11 03:50:47;;;;;;;;;2.00;2.00;;;;;5.78;69.26;100817.00;4963424;28;45426;-60
2021/12/11 03:53:14;;;;;;;;;2.00;2.00;;;;;5.82;69.87;100836.25;4974187;28;48307;-69
2021/12/11 03:55:45;;;;;;;;;4.00;4.00;;;;;5.74;70.27;100811.91;4975394;28;45328;-66
2021/12/11 03:58:11;;;;;;;;;4.00;1.50;;;;;5.84;70.16;100835.28;4985116;28;45456;-69
2021/12/11 04:00:41;;;;;;;;;0.25;0.25;;;;;5.81;69.94;100840.66;4961934;28;45422;-69
2021/12/11 04:03:09;;;;;;;;;1.00;1.00;;;;;5.78;69.48;100832.84;4981325;28;45288;-68
2021/12/11 04:05:38;;;;;;;;;1.75;1.50;;;;;5.77;69.73;100833.75;4984524;28;45388;-64
2021/12/11 04:08:06;;;;;;;;;5.00;3.00;;;;;5.77;70.18;100839.03;4966065;28;45495;-64
2021/12/11 04:10:32;;;;;;;;;2.00;1.00;;;;;5.73;69.79;100837.44;4969588;28;45618;-64
2021/12/11 04:13:01;;;;;;;;;4.50;4.00;;;;;5.76;70.53;100842.59;4991300;28;45481;-67
2021/12/11 04:15:27;;;;;;;;;1.00;1.00;;;;;5.76;69.45;100839.97;4973224;28;45406;-59
2021/12/11 04:17:54;;;;;;;;;3.50;1.00;;;;;5.74;70.33;100841.78;4988025;28;45607;-66
2021/12/11 04:20:24;;;;;;;;;2.00;2.00;;;;;5.75;70.21;100846.16;4992668;28;45410;-60
2021/12/11 04:22:50;;;;;;;;;2.00;2.00;;;;;5.76;69.82;100845.22;4993046;28;45299;-63
2021/12/11 04:25:18;;;;;;;;;3.50;2.00;;;;;5.77;70.00;100854.88;4983940;28;45493;-59
2021/12/11 04:27:45;;;;;;;;;2.75;1.25;;;;;5.75;69.75;100840.88;4986222;28;45456;-60
2021/12/11 04:30:13;;;;;;;;;2.00;2.00;;;;;5.76;70.76;100849.66;4975300;28;45497;-65
2021/12/11 04:32:39;;;;;;;;;4.00;4.00;;;;;5.79;70.69;100868.88;4974425;28;46140;-61
2021/12/11 04:35:07;;;;;;;;;3.00;3.00;;;;;5.78;69.84;100872.44;4964762;28;45462;-64
2021/12/11 04:37:34;;;;;;;;;4.25;2.00;;;;;5.72;69.93;100867.34;4990298;28;45339;-64
2021/12/11 04:40:26;;;;;;;;;4.00;4.00;;;;;5.73;69.36;100866.44;4977530;28;45902;-64
2021/12/11 04:42:59;;;;;;;;;1.25;1.25;;;;;5.75;69.89;100883.09;4976288;28;46061;-67
2021/12/11 04:45:46;;;;;;;;;2.00;2.00;;;;;5.70;69.71;100882.34;4975817;28;45535;-69
2021/12/11 04:48:35;;;;;;;;;6.25;2.50;;;;;5.69;70.30;100882.41;4972786;28;45508;-66
2021/12/11 04:53:49;;;;;;;;;1.75;1.25;;;;;5.67;69.96;100890.38;4994358;28;45427;-64
2021/12/11 05:01:38;;;;;;;;;2.50;2.50;;;;;5.63;70.51;100897.53;4984170;28;45514;-59
2021/12/11 05:12:34;;;;;;;;;2.00;2.00;;;;;5.65;70.57;100886.06;4985693;28;46647;-65
2021/12/11 05:14:52;;;;;;;;;4.00;1.00;;;;;5.65;70.41;100897.47;4989118;28;46040;-62
2021/12/11 05:17:20;;;;;;;;;4.50;2.00;;;;;5.62;70.60;100881.75;4986459;28;45486;-71
2021/12/11 05:19:47;;;;;;;;;1.25;1.25;;;;;5.62;69.94;100879.97;4975447;28;45679;-64
2021/12/11 05:22:14;;;;;;;;;8.00;4.00;;;;;5.63;71.16;100896.66;4985260;28;45423;-68
2021/12/11 05:24:44;;;;;;;;;5.00;2.50;;;;;5.68;70.21;100912.34;4978918;28;45811;-61
2021/12/11 05:27:10;;;;;;;;;4.00;4.00;;;;;5.65;70.07;100915.09;4992781;28;45660;-64
2021/12/11 05:29:37;;;;;;;;;4.00;4.00;;;;;5.62;70.95;100916.06;4968898;28;45569;-63
2021/12/11 05:32:05;;;;;;;;;4.00;2.25;;;;;5.61;69.80;100916.97;4975818;28;45380;-67
2021/12/11 05:34:31;;;;;;;;;4.75;2.50;;;;;5.64;69.77;100927.41;4978334;28;46139;-62
2021/12/11 05:36:57;;;;;;;;;2.00;2.00;;;;;5.65;70.63;100939.69;4993875;28;45330;-68
2021/12/11 05:39:23;;;;;;;;;1.50;1.50;;;;;5.60;70.20;100936.34;4978404;28;45325;-71
2021/12/11 05:41:49;;;;;;;;;5.00;1.00;;;;;5.61;70.37;100940.72;4964396;28;45565;-65
2021/12/11 05:44:18;;;;;;;;;4.25;2.00;;;;;5.66;70.56;100954.63;4984048;28;46280;-73
2021/12/11 05:46:44;;;;;;;;;4.75;2.00;;;;;5.66;70.06;100946.72;4991982;28;45342;-70
2021/12/11 05:49:10;;;;;;;;;4.50;3.00;;;;;5.63;70.91;100955.59;4993195;28;45434;-71
2021/12/11 05:51:38;;;;;;;;;4.75;2.00;;;;;5.67;70.07;100964.25;4970032;28;45371;-70
2021/12/11 05:54:08;;;;;;;;;5.75;3.00;;;;;5.64;70.79;100969.63;4991388;27;45581;-62
2021/12/11 05:56:37;;;;;;;;;2.50;2.00;;;;;5.64;70.86;100990.75;4982436;28;45474;-62
2021/12/11 05:59:07;;;;;;;;;6.00;1.00;;;;;5.63;71.35;100989.03;4979931;28;45477;-66
2021/12/11 06:01:55;;;;;;;;;1.00;1.00;;;;;5.65;70.57;100987.19;4983521;28;45504;-63
2021/12/11 06:04:26;;;;;;;;;6.50;2.00;;;;;5.67;70.88;101001.19;4987337;28;45809;-66
2021/12/11 06:06:52;;;;;;;;;1.75;1.75;;;;;5.65;70.72;101008.31;4985138;28;45594;-69
2021/12/11 06:09:20;;;;;;;;;4.75;2.00;;;;;5.63;70.70;101013.63;4980553;28;45319;-66
2021/12/11 06:11:47;;;;;;;;;1.75;1.75;;;;;5.63;70.24;101010.13;4988041;28;45616;-67
2021/12/11 06:14:16;;;;;;;;;1.00;1.00;;;;;5.64;71.36;101009.22;4979831;28;47089;-69
2021/12/11 06:16:43;;;;;;;;;4.00;4.00;;;;;5.65;70.72;101007.44;4975095;28;45498;-70
2021/12/11 06:19:09;;;;;;;;;1.75;1.00;;;;;5.64;70.45;101006.56;4993712;28;45342;-72
2021/12/11 06:21:36;;;;;;;;;1.75;1.75;;;;;5.63;70.80;101007.50;4990365;28;45364;-68
2021/12/11 06:24:03;;;;;;;;;1.50;1.50;;;;;5.63;70.31;101011.00;4985603;28;46381;-68
2021/12/11 06:26:29;;;;;;;;;1.75;1.25;;;;;5.64;71.33;101011.84;4992990;28;45483;-68
2021/12/11 06:28:55;;;;;;;;;2.00;2.00;;;;;5.64;70.88;101014.50;4982999;28;45319;-68
2021/12/11 06:31:21;;;;;;;;;4.75;2.00;;;;;5.66;70.61;101020.59;4988158;28;45548;-69
2021/12/11 06:33:50;;;;;;;;;4.00;1.00;;;;;5.61;70.83;101020.72;4968093;28;47211;-66
2021/12/11 06:36:17;;;;;;;;;3.00;1.00;;;;;5.63;71.20;101015.41;4957326;28;45413;-65
2021/12/11 06:38:46;;;;;;;;;6.50;4.00;;;;;5.66;70.89;101030.28;4993229;28;45392;-66
2021/12/11 06:41:14;;;;;;;;;1.50;1.50;;;;;5.65;70.40;101018.88;4987611;28;45501;-67
2021/12/11 06:43:41;;;;;;;;;1.00;1.00;;;;;5.68;71.15;101034.59;4975100;28;46385;-67
2021/12/11 06:46:08;;;;;;;;;4.00;4.00;;;;;5.70;70.68;101032.78;4988271;28;45475;-61
2021/12/11 06:48:34;;;;;;;;;2.00;2.00;;;;;5.70;71.15;101043.31;4956866;28;45538;-65
2021/12/11 06:51:03;;;;;;;;;2.50;2.50;;;;;5.68;70.55;101050.44;4979264;28;45461;-58
2021/12/11 06:53:35;;;;;;;;;3.00;3.00;;;;;5.70;71.27;101068.84;4970486;28;45892;-63
2021/12/11 06:56:01;;;;;;;;;2.00;2.00;;;;;5.71;71.65;101066.16;4983846;28;45616;-65
2021/12/11 06:58:27;;;;;;;;;5.00;2.00;;;;;5.69;71.14;101057.44;4988776;28;45405;-64
2021/12/11 07:00:54;;;;;;;;;7.00;2.00;;;;;5.74;70.75;101066.09;4985162;28;45587;-63
2021/12/11 07:03:20;;;;;;;;;1.50;1.50;;;;;5.75;70.52;101075.75;4986189;28;46191;-62
2021/12/11 07:05:46;;;;;;;;;1.75;1.75;;;;;5.76;70.97;101082.75;4985243;28;45593;-68
2021/12/11 07:08:16;;;;;;;;;2.50;1.00;;;;;5.74;71.06;101086.34;4983032;28;45497;-68
2021/12/11 07:10:42;;;;;;;;;1.25;1.25;;;;;5.75;71.33;101093.34;4981234;28;45668;-65
2021/12/11 07:13:09;;;;;;;;;1.75;1.75;;;;;5.74;71.00;101096.91;4985347;28;45495;-60
2021/12/11 07:15:35;;;;;;;;;4.50;2.50;;;;;5.73;71.33;101096.03;4990013;28;45575;-61
2021/12/11 07:18:01;;;;;;;;;2.00;2.00;;;;;5.76;71.43;101109.16;4986649;28;45573;-64
2021/12/11 07:20:27;;;;;;;;;5.00;2.50;;;;;5.73;70.88;101119.78;4973013;28;45478;-60
2021/12/11 07:22:54;;;;;;;;;4.75;2.00;;;;;5.75;70.25;101125.91;4983879;28;45465;-63
2021/12/11 07:25:32;;;;;;;;;4.75;1.00;;;;;5.76;71.21;101122.34;5059838;28;45844;-63
2021/12/11 07:28:03;;;;;;;;;4.00;1.50;;;;;5.79;70.43;101126.66;4983016;28;45447;-60
2021/12/11 07:30:28;;;;;;;;;5.00;3.00;;;;;5.77;71.00;101126.72;4984960;28;45517;-61
2021/12/11 07:32:56;;;;;;;;;9.00;2.00;;;;;5.77;70.77;101128.50;4987967;28;45544;-61
2021/12/11 07:35:22;;;;;;;;;5.25;4.00;;;;;5.79;70.89;101127.53;4988509;28;45476;-61
2021/12/11 07:37:50;;;;;;;;;4.00;4.00;;;;;5.77;70.59;101129.34;4987662;28;45522;-63
2021/12/11 07:40:18;;;;;;;;;2.50;2.50;;;;;5.81;70.72;101136.25;4969807;28;45695;-61
2021/12/11 07:42:44;;;;;;;;;4.25;1.75;;;;;5.79;70.74;101132.81;4987802;28;45866;-62
2021/12/11 07:45:10;;;;;;;;;4.00;4.00;;;;;5.82;70.31;101152.97;4971302;28;45624;-63
2021/12/11 07:47:35;;;;;;;;;10.00;5.50;;;;;5.82;71.24;101153.84;4974084;28;45623;-62
2021/12/11 07:50:01;;;;;;;;;1.25;1.25;;;;;5.82;70.32;101148.56;4987729;28;45560;-64
2021/12/11 07:52:27;;;;;;;;;1.50;1.50;;;;;5.86;70.79;101163.41;4988486;28;45569;-65
2021/12/11 07:54:52;;;;;;;;;4.00;2.00;;;;;5.84;71.30;101173.13;4987436;28;45526;-62
2021/12/11 07:57:17;;;;;;;;;8.50;4.25;;;;;5.87;70.88;101167.78;4984560;28;45326;-61
2021/12/11 07:59:43;;;;;;;;;5.50;4.50;;;;;5.90;70.16;101167.72;4966020;28;45467;-64
2021/12/11 08:02:08;;;;;;;;;8.00;4.00;;;;;5.91;71.03;101164.19;4994927;28;46547;-59
2021/12/11 08:04:34;;;;;;;;;2.00;2.00;;;;;5.89;70.23;101165.09;4995205;28;45211;-63
2021/12/11 08:07:00;;;;;;;;;3.00;3.00;;;;;5.94;70.35;101175.56;4994669;28;45504;-63
2021/12/11 08:09:26;;;;;;;;;5.00;4.00;;;;;5.97;71.30;101186.88;4977468;28;45444;-62
2021/12/11 08:11:53;;;;;;;;;4.00;2.00;;;;;6.03;71.10;101191.16;4994969;28;46036;-64
2021/12/11 08:14:20;;;;;;;;;5.50;5.50;;;;;6.01;70.00;101206.19;4984187;28;45531;-62
2021/12/11 08:16:47;;;;;;;;;9.00;4.25;;;;;6.01;70.14;101198.25;4994723;28;45275;-62
2021/12/11 08:19:19;;;;;;;;;4.25;4.00;;;;;6.01;71.12;101212.31;4989579;28;45388;-62
2021/12/11 08:21:47;;;;;;;;;11.75;11.75;;;;;6.06;70.95;101206.91;4994279;28;46298;-62
2021/12/11 08:24:13;;;;;;;;;3.50;3.50;;;;;6.01;70.31;101204.41;4977053;28;45402;-62
2021/12/11 08:26:41;;;;;;;;;6.25;3.25;;;;;6.08;70.24;101219.16;4978863;28;45337;-64
2021/12/11 08:29:09;;;;;;;;;5.25;4.00;;;;;6.08;70.90;101211.22;4995274;28;45452;-61
2021/12/11 08:31:35;;;;;;;;;5.00;5.00;;;;;6.12;70.23;101212.00;4994868;28;45421;-69
2021/12/11 08:34:01;;;;;;;;;6.25;2.00;;;;;6.17;69.87;101218.03;4994503;28;45173;-65
2021/12/11 08:36:27;;;;;;;;;2.50;2.50;;;;;6.19;70.57;101216.22;4994559;28;45410;-66
2021/12/11 08:38:53;;;;;;;;;5.00;5.00;;;;;6.27;70.27;101224.81;4990700;28;45364;-65
2021/12/11 08:41:24;;;;;;;;;5.00;5.00;;;;;6.29;70.64;101220.34;4976966;28;45362;-64
2021/12/11 08:44:01;;;;;;;;;4.00;4.00;;;;;6.31;69.73;101196.53;4990864;28;45581;-65
2021/12/11 08:46:29;;;;;;;;;5.75;4.00;;;;;6.44;69.82;101214.63;4990852;28;45389;-62
2021/12/11 08:48:59;;;;;;;;;9.00;5.00;;;;;6.52;69.88;101224.09;4993159;28;45192;-63
2021/12/11 08:51:35;;;;;;;;;5.25;4.00;;;;;6.59;69.33;101223.88;4994845;28;45891;-64
2021/12/11 08:54:01;;;;;;;;;11.25;7.50;;;;;6.65;68.98;101225.47;4989607;28;45391;-62
2021/12/11 08:56:27;;;;;;;;;6.00;5.00;;;;;6.78;68.27;101237.41;4972137;28;45493;-63
2021/12/11 08:58:54;;;;;;;;;6.00;3.00;;;;;6.85;68.40;101246.88;4974814;28;45642;-65
2021/12/11 09:01:33;;;;;;;;;8.75;7.00;;;;;6.85;68.68;101233.66;4981201;28;46262;-62
2021/12/11 09:04:12;;;;;;;;;6.00;6.00;;;;;6.99;68.38;101251.75;5050777;28;45453;-63
2021/12/11 09:06:50;;;;;;;;;22.00;18.50;;;;;7.02;72.56;101251.63;4977060;28;45308;-55
2021/12/11 09:09:39;;;;;;;;;6.75;5.75;;;;;7.07;68.08;101245.31;4970499;28;45620;-64
2021/12/11 09:12:20;;;;;;;;;5.25;5.25;;;;;7.12;67.76;101246.94;4974716;28;45402;-56
2021/12/11 09:14:52;;;;;;;;;7.00;6.00;;;;;7.18;68.20;101262.63;4974817;28;45498;-61
2021/12/11 09:17:26;;;;;;;;;4.50;4.00;;;;;7.25;68.04;101270.31;4981876;28;45375;-57
2021/12/11 09:20:10;;;;;;;;;10.00;8.00;;;;;7.32;67.51;101271.00;4986848;28;46381;-59
2021/12/11 09:22:48;;;;;;;;;8.00;5.25;;;;;7.39;67.84;101275.16;4968091;28;45442;-58
2021/12/11 09:25:31;;;;;;;;;8.00;6.50;;;;;7.45;67.57;101287.34;4977901;28;45439;-59
2021/12/11 09:27:58;;;;;;;;;6.50;5.50;;;;;7.45;66.93;101290.88;4978857;28;45468;-59
2021/12/11 09:30:30;;;;;;;;;5.00;5.00;;;;;7.45;66.68;101301.44;4976632;28;45596;-60
2021/12/11 09:33:10;;;;;;;;;7.25;5.75;;;;;7.41;67.25;101299.78;4994068;28;45344;-58
2021/12/11 09:35:48;;;;;;;;;10.50;5.00;;;;;7.46;66.44;101304.97;4990809;28;45500;-65
2021/12/11 09:38:24;;;;;;;;;8.25;5.00;;;;;7.38;66.45;101300.75;4956781;28;45345;-62
2021/12/11 09:40:55;;;;;;;;;4.75;4.75;;;;;7.46;65.45;101319.06;4944634;28;45485;-59
2021/12/11 09:43:33;;;;;;;;;9.00;7.00;;;;;7.43;65.75;101321.81;4993568;28;46058;-61
2021/12/11 09:45:58;;;;;;;;;5.00;5.00;;;;;7.44;66.63;101312.94;4985162;28;45459;-62
2021/12/11 09:48:24;;;;;;;;;4.50;4.25;;;;;7.46;66.14;101318.19;4992100;28;45600;-67
2021/12/11 09:50:58;;;;;;;;;4.50;4.50;;;;;7.51;66.33;101325.06;4983848;28;45476;-70
2021/12/11 09:53:37;;;;;;;;;10.00;9.00;;;;;7.53;66.14;101325.88;4984524;28;45526;-68
2021/12/11 09:56:07;;;;;;;;;6.00;6.00;;;;;7.54;66.32;101324.94;4969698;28;45640;-67
2021/12/11 09:58:34;;;;;;;;;7.50;7.25;;;;;7.58;66.05;101329.25;4991054;28;45513;-66
2021/12/11 10:01:06;;;;;;;;;8.00;4.00;;;;;7.63;65.47;101329.97;4989113;28;45635;-67
2021/12/11 10:03:40;;;;;;;;;6.50;5.00;;;;;7.65;66.30;101343.16;4986257;28;45511;-71
2021/12/11 10:06:25;;;;;;;;;4.25;3.75;;;;;7.66;66.03;101340.44;4980462;28;45537;-67
2021/12/11 10:09:07;;;;;;;;;8.00;5.00;;;;;7.70;65.67;101346.53;4987283;28;45795;-66
2021/12/11 10:11:33;;;;;;;;;6.00;6.00;;;;;7.68;65.97;101343.94;4990142;28;45572;-67
2021/12/11 10:14:08;;;;;;;;;8.00;8.00;;;;;7.80;65.49;101355.03;4990221;28;46481;-60
2021/12/11 10:16:46;;;;;;;;;15.00;6.00;;;;;7.78;65.40;101348.91;4991092;28;45508;-66
2021/12/11 10:19:15;;;;;;;;;4.00;4.00;;;;;7.79;64.89;101355.94;4979986;28;45500;-66
2021/12/11 10:21:47;;;;;;;;;8.25;5.50;;;;;7.83;65.30;101355.81;4989919;28;45632;-65
2021/12/11 10:24:21;;;;;;;;;8.25;6.50;;;;;7.82;65.19;101347.94;4982479;28;45606;-65
2021/12/11 10:26:47;;;;;;;;;9.25;3.25;;;;;7.84;64.77;101354.03;4984098;28;45831;-67
2021/12/11 10:29:14;;;;;;;;;8.75;4.75;;;;;7.82;64.33;101355.88;4989060;28;45574;-67
2021/12/11 10:31:47;;;;;;;;;6.00;5.00;;;;;7.80;64.89;101340.00;4977068;28;45426;-65
2021/12/11 10:34:17;;;;;;;;;5.75;5.75;;;;;7.77;64.44;101342.75;4976524;28;46042;-62
2021/12/11 10:36:56;;;;;;;;;4.00;3.75;;;;;7.82;65.57;101350.56;4996138;28;45218;-63
2021/12/11 10:39:22;;;;;;;;;5.00;5.00;;;;;7.83;64.91;101352.31;4996004;28;45391;-64
2021/12/11 10:41:48;;;;;;;;;7.75;4.75;;;;;7.80;65.08;101352.38;4978659;28;45501;-67
2021/12/11 10:44:18;;;;;;;;;8.75;4.75;;;;;7.86;64.88;101357.50;4994008;28;45398;-71
2021/12/11 10:46:49;;;;;;;;;5.75;5.75;;;;;7.85;64.77;101355.75;4992077;28;45544;-69
2021/12/11 10:49:18;;;;;;;;;4.00;2.50;;;;;7.84;64.94;101356.69;4992218;28;45486;-72
2021/12/11 10:51:50;;;;;;;;;6.25;4.25;;;;;7.87;65.03;101359.22;4990427;28;45184;-63
2021/12/11 10:54:17;;;;;;;;;5.50;4.25;;;;;7.88;64.80;101366.25;4981302;28;47856;-65
2021/12/11 10:56:43;;;;;;;;;5.00;5.00;;;;;7.80;65.47;101352.38;4981408;28;45506;-63
2021/12/11 10:59:13;;;;;;;;;5.75;5.75;;;;;7.91;65.02;101359.06;4976709;28;45516;-65
2021/12/11 11:01:47;;;;;;;;;6.00;6.00;;;;;8.12;63.96;101368.09;4985006;28;45656;-64
2021/12/11 11:04:19;;;;;;;;;5.00;4.00;;;;;8.16;64.20;101356.47;4973564;28;45652;-65
2021/12/11 11:06:46;;;;;;;;;10.50;3.75;;;;;8.31;63.67;101364.81;4987794;28;45375;-67
2021/12/11 11:09:15;;;;;;;;;7.25;6.75;;;;;8.34;63.50;101355.03;4968830;28;45609;-64
2021/12/11 11:11:41;;;;;;;;;8.75;7.25;;;;;8.47;62.89;101368.72;4990986;28;45615;-63
2021/12/11 11:14:10;;;;;;;;;7.75;6.00;;;;;8.53;63.57;101360.53;4992057;28;45459;-65
2021/12/11 11:16:38;;;;;;;;;4.25;4.25;;;;;8.53;63.01;101363.19;5052503;28;45454;-65
2021/12/11 11:19:04;;;;;;;;;9.00;6.25;;;;;8.69;63.28;101367.00;4982359;28;45464;-66
2021/12/11 11:21:33;;;;;;;;;10.00;6.00;;;;;8.80;63.11;101354.22;4983969;28;45714;-62
2021/12/11 11:24:01;;;;;;;;;7.25;5.50;;;;;8.93;62.71;101349.34;4981400;28;45318;-62
2021/12/11 11:26:32;;;;;;;;;4.75;4.50;;;;;9.02;61.94;101358.75;4987032;28;45983;-64
2021/12/11 11:29:01;;;;;;;;;6.00;3.00;;;;;9.01;61.86;101347.28;4975165;28;45493;-62
2021/12/11 11:31:36;;;;;;;;;6.25;5.00;;;;;9.04;61.47;101346.28;4984909;28;45497;-61
2021/12/11 11:34:04;;;;;;;;;6.00;4.00;;;;;9.05;62.12;101350.69;4987328;28;45464;-64
2021/12/11 11:36:31;;;;;;;;;5.75;3.00;;;;;9.05;61.77;101353.31;4974009;28;45428;-63
2021/12/11 11:39:05;;;;;;;;;5.50;5.50;;;;;8.97;62.58;101347.44;4988403;28;45248;-61
2021/12/11 11:41:34;;;;;;;;;5.25;3.50;;;;;9.02;61.53;101361.41;4982981;28;46912;-62
2021/12/11 11:44:03;;;;;;;;;6.00;6.00;;;;;8.94;62.08;101363.47;4986442;28;46240;-61
2021/12/11 11:46:29;;;;;;;;;6.75;6.75;;;;;8.98;62.65;101359.78;4986260;28;45477;-63
2021/12/11 11:48:57;;;;;;;;;8.75;5.50;;;;;8.94;62.26;101371.44;4990915;28;45375;-61
2021/12/11 11:51:26;;;;;;;;;14.75;7.75;;;;;8.90;62.20;101362.72;4984085;28;45845;-62
2021/12/11 11:53:51;;;;;;;;;3.00;3.00;;;;;8.91;62.35;101369.75;4985864;28;45515;-62
2021/12/11 11:56:21;;;;;;;;;14.00;5.00;;;;;8.90;62.23;101381.28;4991319;28;45322;-62
2021/12/11 11:58:47;;;;;;;;;5.00;5.00;;;;;8.89;62.11;101371.59;4982114;28;45517;-65
2021/12/11 12:01:26;;;;;;;;;7.00;7.00;;;;;8.92;62.81;101373.28;4982052;28;45542;-62
2021/12/11 12:03:52;;;;;;;;;5.00;5.00;;;;;8.96;62.87;101381.06;4976367;28;46181;-62